Time;durP1;ratioP1;P1;durP2;ratioP2;P2;SDS_P1;SDS_P2;PMS_P1;PMS_P2;Temp;Humidity;BMP_temperature;BMP_pressure;BME280_temperature;BME280_humidity;BME280_pressure;Samples;Min_cycle;Max_cycle;Signal;HPM_P1;HPM_P2
2022/06/13 00:01:27;;;;;;;2.60;0.73;;;12.60;99.90;;;;;;4893576;29;20408;-57
2022/06/13 00:03:55;;;;;;;1.42;0.65;;;12.60;99.90;;;;;;4892012;29;20060;-56
2022/06/13 00:06:23;;;;;;;2.65;0.50;;;12.70;99.90;;;;;;4891901;29;20529;-56
2022/06/13 00:08:51;;;;;;;1.10;0.40;;;12.70;99.90;;;;;;4893433;29;20049;-57
2022/06/13 00:11:21;;;;;;;1.67;0.47;;;12.70;99.90;;;;;;4877763;29;20060;-57
2022/06/13 00:13:52;;;;;;;7.30;0.65;;;12.80;99.90;;;;;;4895033;29;20060;-57
2022/06/13 00:16:20;;;;;;;6.32;0.80;;;12.80;99.90;;;;;;4893517;29;20048;-56
2022/06/13 00:18:49;;;;;;;1.80;0.43;;;12.80;99.90;;;;;;4894606;29;20056;-57
2022/06/13 00:21:26;;;;;;;2.50;0.60;;;12.80;99.90;;;;;;4883610;29;20044;-56
2022/06/13 00:23:54;;;;;;;2.67;0.70;;;12.80;99.90;;;;;;4897878;29;20516;-56
2022/06/13 00:26:24;;;;;;;2.30;0.52;;;12.90;99.90;;;;;;4893939;29;20052;-57
2022/06/13 00:28:53;;;;;;;1.80;0.50;;;12.90;99.90;;;;;;4896161;29;20508;-57
2022/06/13 00:31:21;;;;;;;3.10;0.50;;;12.90;99.90;;;;;;4891544;29;20048;-58
2022/06/13 00:33:49;;;;;;;1.60;0.40;;;12.90;99.90;;;;;;4893259;29;20060;-58
2022/06/13 00:36:18;;;;;;;6.30;0.60;;;12.90;99.90;;;;;;4892440;29;20052;-58
2022/06/13 00:38:45;;;;;;;3.00;1.10;;;12.80;99.90;;;;;;4895271;29;20045;-58
2022/06/13 00:41:18;;;;;;;1.27;0.50;;;12.80;99.90;;;;;;4893245;29;20056;-58
2022/06/13 00:43:46;;;;;;;1.67;0.70;;;12.80;99.90;;;;;;4896503;29;20374;-57
2022/06/13 00:46:25;;;;;;;3.05;0.63;;;12.70;99.90;;;;;;4895854;29;20052;-58
2022/06/13 00:48:57;;;;;;;5.30;0.80;;;12.70;99.90;;;;;;4884956;29;20064;-56
2022/06/13 00:51:25;;;;;;;1.30;0.45;;;12.70;99.90;;;;;;4896669;29;20067;-58
2022/06/13 00:53:53;;;;;;;1.27;0.40;;;12.70;99.90;;;;;;4895406;29;20045;-58
2022/06/13 00:56:24;;;;;;;1.02;0.40;;;12.80;99.90;;;;;;4893797;29;20401;-58
2022/06/13 00:58:56;;;;;;;3.65;0.50;;;12.70;99.90;;;;;;4897282;29;20060;-57
2022/06/13 01:01:28;;;;;;;3.67;0.90;;;12.80;99.90;;;;;;4879095;29;20390;-58
2022/06/13 01:04:02;;;;;;;2.58;0.50;;;12.70;99.90;;;;;;4893774;29;20060;-58
2022/06/13 01:06:33;;;;;;;2.78;0.43;;;12.70;99.90;;;;;;4890127;29;20379;-58
2022/06/13 01:09:05;;;;;;;2.90;0.43;;;12.70;99.90;;;;;;4896235;29;20037;-57
2022/06/13 01:11:33;;;;;;;6.93;1.00;;;12.70;99.90;;;;;;4894741;29;20063;-57
2022/06/13 01:14:10;;;;;;;3.17;1.48;;;12.60;99.90;;;;;;4897117;29;20052;-57
2022/06/13 01:16:50;;;;;;;1.75;0.50;;;12.60;99.90;;;;;;4893712;29;20142;-58
2022/06/13 01:19:37;;;;;;;2.92;0.52;;;12.60;99.90;;;;;;4895433;29;20052;-57
2022/06/13 01:22:04;;;;;;;1.25;0.35;;;12.60;99.90;;;;;;4893339;29;20480;-57
2022/06/13 01:25:00;;;;;;;5.57;1.02;;;12.60;99.90;;;;;;4894945;29;20609;-58
2022/06/13 01:28:01;;;;;;;1.95;0.40;;;12.60;99.90;;;;;;4894133;29;20106;-56
2022/06/13 01:30:31;;;;;;;3.95;0.45;;;12.60;99.90;;;;;;4892724;29;20045;-57
2022/06/13 01:33:02;;;;;;;3.47;0.65;;;12.60;99.90;;;;;;4880032;29;20061;-57
2022/06/13 01:35:54;;;;;;;1.83;0.40;;;12.60;99.90;;;;;;4889296;29;20045;-58
2022/06/13 01:38:27;;;;;;;3.45;0.63;;;12.60;99.90;;;;;;4895529;29;20053;-57
2022/06/13 01:41:03;;;;;;;2.08;0.43;;;12.60;99.90;;;;;;4895392;29;20048;-56
2022/06/13 01:43:53;;;;;;;1.08;0.80;;;12.60;99.90;;;;;;4896936;29;20053;-58
2022/06/13 01:46:30;;;;;;;3.00;0.50;;;12.60;99.90;;;;;;4891358;29;20049;-57
2022/06/13 01:49:07;;;;;;;4.00;0.60;;;12.60;99.90;;;;;;4895803;29;20052;-58
2022/06/13 01:51:46;;;;;;;4.15;1.00;;;12.60;99.90;;;;;;4897901;29;20045;-57
2022/06/13 01:54:22;;;;;;;5.80;1.40;;;12.60;99.90;;;;;;4896251;29;20048;-57
2022/06/13 01:57:23;;;;;;;0.63;0.47;;;12.60;99.90;;;;;;4895972;29;20048;-58
2022/06/13 02:00:13;;;;;;;2.72;0.60;;;12.60;99.90;;;;;;4895833;29;20052;-58
2022/06/13 02:02:47;;;;;;;1.52;0.52;;;12.60;99.90;;;;;;4896507;29;20492;-57
2022/06/13 02:05:31;;;;;;;3.03;0.55;;;12.60;99.90;;;;;;4895952;29;20052;-57
2022/06/13 02:08:06;;;;;;;3.50;0.65;;;12.60;99.90;;;;;;4894755;29;20071;-57
2022/06/13 02:11:04;;;;;;;2.63;0.60;;;12.60;99.90;;;;;;4897050;29;20067;-58
2022/06/13 02:13:42;;;;;;;4.78;0.80;;;12.50;99.90;;;;;;4893088;29;20048;-58
2022/06/13 02:16:19;;;;;;;2.13;1.10;;;12.50;99.90;;;;;;4894376;29;20059;-58
2022/06/13 02:19:10;;;;;;;4.80;1.15;;;12.40;99.90;;;;;;4895575;29;20118;-58
2022/06/13 02:21:50;;;;;;;2.72;0.60;;;12.40;99.90;;;;;;4892625;29;20134;-57
2022/06/13 02:24:23;;;;;;;4.15;0.60;;;12.40;99.90;;;;;;4888066;29;20040;-58
2022/06/13 02:26:56;;;;;;;3.45;1.23;;;12.30;99.90;;;;;;4896320;29;20532;-58
2022/06/13 02:29:31;;;;;;;2.35;0.52;;;12.20;99.90;;;;;;4896440;29;20051;-57
2022/06/13 02:32:30;;;;;;;4.25;0.73;;;12.20;99.90;;;;;;4896342;29;20544;-58
2022/06/13 02:35:13;;;;;;;5.13;1.48;;;12.10;99.90;;;;;;4875910;29;20493;-58
2022/06/13 02:37:45;;;;;;;3.40;0.55;;;12.10;99.90;;;;;;4895785;29;20052;-57
2022/06/13 02:40:30;;;;;;;6.68;0.95;;;12.00;99.90;;;;;;4897582;29;20402;-58
2022/06/13 02:43:09;;;;;;;4.80;0.93;;;12.00;99.90;;;;;;4896944;29;20045;-58
2022/06/13 02:45:45;;;;;;;6.13;1.05;;;12.00;99.90;;;;;;4897220;29;20053;-58
2022/06/13 02:48:34;;;;;;;6.25;1.13;;;12.00;99.90;;;;;;4894228;29;20508;-58
2022/06/13 02:51:25;;;;;;;1.58;0.60;;;12.00;99.90;;;;;;4878254;29;20080;-57
2022/06/13 02:54:11;;;;;;;4.95;0.90;;;11.90;99.90;;;;;;4894171;29;20070;-57
2022/06/13 02:59:43;;;;;;;5.75;0.82;;;11.90;99.90;;;;;;4895566;29;20048;-58
2022/06/13 03:02:14;;;;;;;2.92;0.60;;;11.90;99.90;;;;;;4894671;29;20520;-58
2022/06/13 03:04:54;;;;;;;4.53;1.17;;;12.00;99.90;;;;;;4896794;29;20064;-58
2022/06/13 03:07:34;;;;;;;2.63;0.63;;;12.00;99.90;;;;;;4893219;29;20597;-58
2022/06/13 03:10:22;;;;;;;5.32;0.95;;;11.90;99.90;;;;;;4894288;29;20512;-58
2022/06/13 03:13:01;;;;;;;3.70;1.02;;;11.90;99.90;;;;;;4893978;29;20056;-58
2022/06/13 03:15:31;;;;;;;2.97;0.93;;;11.90;99.90;;;;;;4895952;29;20378;-59
2022/06/13 03:18:08;;;;;;;5.47;0.98;;;11.90;99.90;;;;;;4892823;29;20307;-58
2022/06/13 03:20:53;;;;;;;5.28;1.08;;;11.90;99.90;;;;;;4895928;29;20055;-58
2022/06/13 03:23:40;;;;;;;2.70;0.70;;;11.90;99.90;;;;;;4879160;29;20057;-58
2022/06/13 03:26:19;;;;;;;1.77;0.70;;;11.90;99.90;;;;;;4895860;29;20044;-57
2022/06/13 03:29:03;;;;;;;3.15;0.90;;;11.90;99.90;;;;;;4894775;29;20052;-58
2022/06/13 03:31:55;;;;;;;5.22;0.68;;;11.90;99.90;;;;;;4892415;29;20071;-58
2022/06/13 03:34:28;;;;;;;3.80;1.10;;;11.90;99.90;;;;;;4893202;29;20051;-58
2022/06/13 03:37:22;;;;;;;1.65;0.75;;;11.80;99.90;;;;;;4894913;29;20040;-58
2022/06/13 03:40:11;;;;;;;5.07;0.60;;;11.90;99.90;;;;;;4893108;29;20040;-57
2022/06/13 03:42:55;;;;;;;5.35;1.10;;;11.90;99.90;;;;;;4891406;29;20198;-57
2022/06/13 03:45:27;;;;;;;7.60;0.88;;;11.90;99.90;;;;;;4893389;29;20063;-58
2022/06/13 03:48:02;;;;;;;6.28;0.93;;;11.90;99.90;;;;;;4894463;29;20051;-58
2022/06/13 03:50:37;;;;;;;3.40;0.88;;;11.90;99.90;;;;;;4900324;29;20060;-58
2022/06/13 03:53:27;;;;;;;5.32;0.80;;;11.90;99.90;;;;;;4900198;29;20055;-57
2022/06/13 03:56:21;;;;;;;;;;;11.90;99.90;;;;;;4900387;29;20049;-58
2022/06/13 03:59:05;;;;;;;4.78;0.80;;;11.80;99.90;;;;;;4883643;29;19951;-57
2022/06/13 04:01:44;;;;;;;8.82;1.00;;;11.80;99.90;;;;;;4897493;29;20389;-57
2022/06/13 04:04:20;;;;;;;5.57;0.87;;;11.70;99.90;;;;;;4897057;29;20485;-57
2022/06/13 04:06:49;;;;;;;6.63;1.15;;;11.70;99.90;;;;;;4898226;29;20475;-58
2022/06/13 04:09:28;;;;;;;3.53;0.75;;;11.70;99.90;;;;;;4897430;29;20075;-57
2022/06/13 04:12:04;;;;;;;2.22;1.15;;;11.70;99.90;;;;;;4896710;29;20049;-57
2022/06/13 04:15:17;;;;;;;2.25;0.90;;;11.60;99.90;;;;;;4886270;29;20041;-57
2022/06/13 04:18:35;;;;;;;4.53;1.00;;;11.60;99.90;;;;;;4887532;29;20056;-58
2022/06/13 04:21:15;;;;;;;6.40;1.83;;;11.60;99.90;;;;;;4895890;29;20068;-57
2022/06/13 04:23:58;;;;;;;3.25;1.27;;;11.60;99.90;;;;;;4897103;29;20052;-56
2022/06/13 04:26:36;;;;;;;3.65;1.17;;;11.60;99.90;;;;;;4882955;29;20056;-57
2022/06/13 04:29:10;;;;;;;6.40;1.50;;;11.70;99.90;;;;;;4897363;29;20416;-57
2022/06/13 04:31:39;;;;;;;5.53;1.35;;;11.70;99.90;;;;;;4895904;29;20052;-57
2022/06/13 04:34:32;;;;;;;6.50;1.10;;;11.70;99.90;;;;;;4896228;29;20040;-57
2022/06/13 04:37:03;;;;;;;4.93;1.50;;;11.80;99.90;;;;;;4897142;29;20056;-58
2022/06/13 04:39:33;;;;;;;3.33;1.15;;;11.80;99.90;;;;;;4898647;29;20059;-57
2022/06/13 04:42:04;;;;;;;4.32;1.38;;;11.80;99.90;;;;;;4895879;29;20053;-58
2022/06/13 04:44:35;;;;;;;6.70;2.33;;;11.90;99.90;;;;;;4893693;29;20068;-58
2022/06/13 04:47:05;;;;;;;4.65;1.30;;;11.90;99.90;;;;;;4894209;29;20047;-58
2022/06/13 04:49:44;;;;;;;;;;;11.90;99.90;;;;;;4893255;29;20052;-58
2022/06/13 04:52:40;;;;;;;7.13;1.33;;;12.00;99.90;;;;;;4881871;29;19924;-58
2022/06/13 04:55:18;;;;;;;3.80;1.33;;;12.00;99.90;;;;;;4891225;29;20625;-58
2022/06/13 04:57:45;;;;;;;2.97;1.30;;;12.00;99.90;;;;;;4891713;29;20052;-57
2022/06/13 05:00:14;;;;;;;5.97;1.50;;;12.00;99.90;;;;;;4876538;29;20508;-57
2022/06/13 05:02:44;;;;;;;5.90;1.48;;;12.10;99.90;;;;;;4878977;29;20053;-56
2022/06/13 05:05:37;;;;;;;3.63;1.50;;;12.10;99.90;;;;;;4889867;29;20052;-58
2022/06/13 05:08:29;;;;;;;5.53;1.77;;;12.10;99.90;;;;;;4891416;29;20052;-57
2022/06/13 05:11:20;;;;;;;7.95;1.65;;;12.10;99.90;;;;;;4892813;29;20049;-57
2022/06/13 05:13:51;;;;;;;2.30;1.05;;;12.20;99.90;;;;;;4888626;29;20068;-58
2022/06/13 05:16:32;;;;;;;6.35;1.55;;;12.10;99.90;;;;;;4890757;29;20052;-58
2022/06/13 05:19:06;;;;;;;4.22;1.70;;;12.10;99.90;;;;;;4894938;29;20052;-57
2022/06/13 05:21:42;;;;;;;6.50;1.60;;;12.10;99.90;;;;;;4894011;29;20049;-58
2022/06/13 05:24:47;;;;;;;3.25;2.25;;;12.10;99.90;;;;;;4893523;29;20041;-58
2022/06/13 05:27:15;;;;;;;6.75;1.80;;;12.10;99.90;;;;;;4891274;29;20398;-57
2022/06/13 05:29:42;;;;;;;5.93;1.90;;;12.10;99.90;;;;;;4891033;29;20053;-57
2022/06/13 05:32:13;;;;;;;5.47;1.60;;;12.10;99.90;;;;;;4892736;29;20052;-58
2022/06/13 05:34:42;;;;;;;4.57;1.50;;;12.10;99.90;;;;;;4892515;29;20048;-58
2022/06/13 05:37:13;;;;;;;6.60;1.85;;;12.10;99.90;;;;;;4891680;29;20056;-57
2022/06/13 05:39:41;;;;;;;3.88;1.23;;;12.10;99.90;;;;;;4894702;29;20049;-58
2022/06/13 05:42:13;;;;;;;6.15;1.67;;;12.00;99.90;;;;;;4892934;29;20090;-58
2022/06/13 05:44:41;;;;;;;8.13;1.52;;;12.00;99.90;;;;;;4888923;29;20041;-58
2022/06/13 05:47:19;;;;;;;7.57;1.58;;;11.90;99.90;;;;;;4894157;29;20516;-58
2022/06/13 05:49:47;;;;;;;4.18;1.92;;;11.90;99.90;;;;;;4894378;29;20056;-57
2022/06/13 05:52:15;;;;;;;6.68;1.77;;;11.90;99.90;;;;;;4873952;29;20052;-58
2022/06/13 05:54:42;;;;;;;4.07;1.17;;;11.80;99.90;;;;;;4888436;29;20504;-57
2022/06/13 05:57:10;;;;;;;5.57;1.25;;;11.80;99.90;;;;;;4893675;29;20399;-57
2022/06/13 05:59:38;;;;;;;5.35;1.73;;;11.80;99.90;;;;;;4895328;29;20044;-58
2022/06/13 06:02:09;;;;;;;4.40;1.40;;;11.70;99.90;;;;;;4893835;29;20122;-57
2022/06/13 06:04:37;;;;;;;4.20;1.27;;;11.80;99.90;;;;;;4895084;29;20041;-57
2022/06/13 06:07:05;;;;;;;7.55;1.58;;;11.80;99.90;;;;;;4891567;29;20056;-58
2022/06/13 06:09:32;;;;;;;6.65;1.25;;;11.80;99.90;;;;;;4887127;29;20049;-58
2022/06/13 06:12:00;;;;;;;3.80;1.38;;;11.80;99.90;;;;;;4892028;29;20048;-58
2022/06/13 06:14:28;;;;;;;5.95;1.60;;;11.90;99.90;;;;;;4888496;29;20045;-58
2022/06/13 06:16:56;;;;;;;8.15;1.65;;;11.90;99.90;;;;;;4892954;29;20052;-58
2022/06/13 06:19:23;;;;;;;10.07;2.47;;;12.00;99.90;;;;;;4892773;29;20488;-57
2022/06/13 06:21:51;;;;;;;11.90;1.50;;;12.10;99.90;;;;;;4893188;29;20521;-58
2022/06/13 06:24:19;;;;;;;10.70;1.40;;;12.20;99.90;;;;;;4886243;29;20385;-58
2022/06/13 06:26:47;;;;;;;11.93;1.50;;;12.30;99.90;;;;;;4890144;29;20063;-57
2022/06/13 06:29:15;;;;;;;8.82;1.75;;;12.40;99.90;;;;;;4887571;29;20040;-58
2022/06/13 06:31:42;;;;;;;7.30;2.22;;;12.50;99.90;;;;;;4891100;29;20409;-58
2022/06/13 06:34:11;;;;;;;3.55;1.60;;;12.60;99.90;;;;;;4893591;29;20055;-57
2022/06/13 06:36:39;;;;;;;6.60;1.35;;;12.70;99.90;;;;;;4894426;29;20055;-58
2022/06/13 06:39:06;;;;;;;5.45;2.30;;;12.90;99.90;;;;;;4886554;29;20053;-57
2022/06/13 06:41:34;;;;;;;6.95;1.55;;;13.00;99.90;;;;;;4882063;29;20041;-56
2022/06/13 06:44:02;;;;;;;10.30;1.80;;;13.10;99.90;;;;;;4890812;29;20052;-56
2022/06/13 06:46:29;;;;;;;9.20;2.42;;;13.20;99.90;;;;;;4889313;29;21333;-57
2022/06/13 06:48:57;;;;;;;12.95;3.50;;;13.30;99.90;;;;;;4884788;29;20041;-58
2022/06/13 06:51:29;;;;;;;10.20;2.60;;;13.40;99.90;;;;;;4893603;29;20536;-57
2022/06/13 07:02:15;;;;;;;5.72;1.70;;;13.40;99.90;;;;;;4887001;29;20059;-57
2022/06/13 07:04:43;;;;;;;18.13;2.17;;;13.40;99.90;;;;;;4891064;29;20041;-57
2022/06/13 07:07:11;;;;;;;5.18;1.48;;;13.40;99.90;;;;;;4877517;29;20407;-58
2022/06/13 07:09:39;;;;;;;8.30;1.15;;;13.50;99.90;;;;;;4888469;29;20856;-58
2022/06/13 07:12:07;;;;;;;7.32;1.52;;;13.50;99.90;;;;;;4882691;29;20051;-58
2022/06/13 07:14:35;;;;;;;12.32;2.47;;;13.50;99.90;;;;;;4889562;29;20056;-56
2022/06/13 07:17:05;;;;;;;13.50;1.40;;;13.50;99.90;;;;;;4883786;29;20037;-57
2022/06/13 07:19:35;;;;;;;15.82;1.60;;;13.50;99.90;;;;;;4893476;29;20053;-57
2022/06/13 07:22:04;;;;;;;15.60;1.80;;;13.50;99.90;;;;;;4890908;29;20056;-57
2022/06/13 07:24:33;;;;;;;4.72;1.30;;;13.50;99.90;;;;;;4890860;29;20044;-57
2022/06/13 07:27:01;;;;;;;6.90;1.50;;;13.50;99.90;;;;;;4888883;29;20049;-56
2022/06/13 07:29:29;;;;;;;15.57;1.85;;;13.50;99.90;;;;;;4890253;29;20044;-57
2022/06/13 07:32:02;;;;;;;10.85;1.63;;;13.50;99.90;;;;;;4891390;29;20386;-56
2022/06/13 07:34:32;;;;;;;11.57;1.35;;;13.50;99.90;;;;;;4885229;29;20405;-56
2022/06/13 07:37:02;;;;;;;15.15;2.42;;;13.40;99.90;;;;;;4883752;29;20071;-56
2022/06/13 07:39:29;;;;;;;18.20;1.98;;;13.40;99.90;;;;;;4887962;29;20060;-56
2022/06/13 07:41:57;;;;;;;8.35;2.00;;;13.40;99.90;;;;;;4893468;29;20056;-56
2022/06/13 07:44:32;;;;;;;14.15;1.52;;;13.40;99.90;;;;;;4882341;29;20057;-57
2022/06/13 07:47:00;;;;;;;6.18;1.38;;;13.40;99.90;;;;;;4886371;29;20053;-56
2022/06/13 07:49:28;;;;;;;5.13;1.52;;;13.40;99.90;;;;;;4890712;29;20044;-58
2022/06/13 07:51:56;;;;;;;6.18;2.05;;;13.50;99.90;;;;;;4890715;29;20052;-58
2022/06/13 07:54:24;;;;;;;5.18;2.40;;;13.60;99.90;;;;;;4889965;29;20049;-57
2022/06/13 07:56:51;;;;;;;8.38;2.40;;;13.70;99.90;;;;;;4890046;29;20059;-57
2022/06/13 07:59:25;;;;;;;17.42;2.03;;;13.80;99.90;;;;;;4883263;29;20060;-58
2022/06/13 08:01:53;;;;;;;8.30;2.10;;;13.90;99.90;;;;;;4890298;29;20049;-58
2022/06/13 08:04:21;;;;;;;6.05;1.80;;;14.00;99.90;;;;;;4891660;29;20057;-57
2022/06/13 08:07:10;;;;;;;5.32;1.90;;;14.20;99.90;;;;;;4883753;29;20052;-57
2022/06/13 08:09:38;;;;;;;6.87;1.70;;;14.40;99.90;;;;;;4887814;29;20420;-56
2022/06/13 08:12:08;;;;;;;5.05;1.50;;;14.40;99.90;;;;;;4886610;29;20300;-57
2022/06/13 08:14:36;;;;;;;7.57;2.08;;;14.40;99.90;;;;;;4888380;29;20041;-56
2022/06/13 08:17:04;;;;;;;6.03;1.45;;;14.40;99.90;;;;;;4891934;29;20052;-57
2022/06/13 08:19:31;;;;;;;4.20;1.10;;;14.40;99.90;;;;;;4883417;29;20622;-57
2022/06/13 08:21:59;;;;;;;7.93;2.13;;;14.40;99.90;;;;;;4882210;29;20063;-57
2022/06/13 08:24:27;;;;;;;7.03;1.65;;;14.30;99.90;;;;;;4892590;29;20072;-56
2022/06/13 08:26:54;;;;;;;5.32;1.55;;;14.20;99.90;;;;;;4892026;29;20057;-57
2022/06/13 08:29:22;;;;;;;5.80;1.42;;;14.10;99.90;;;;;;4890867;29;20068;-57
2022/06/13 08:31:49;;;;;;;3.85;1.35;;;14.10;99.90;;;;;;4883863;29;20060;-57
2022/06/13 08:34:17;;;;;;;9.18;1.52;;;14.00;99.90;;;;;;4894136;29;20053;-57
2022/06/13 08:36:46;;;;;;;4.18;1.55;;;14.00;99.90;;;;;;4895560;29;20069;-56
2022/06/13 08:39:14;;;;;;;5.27;1.00;;;14.10;99.90;;;;;;4894452;29;20052;-56
2022/06/13 08:41:58;;;;;;;5.20;1.88;;;14.10;99.90;;;;;;4891974;29;20048;-56
2022/06/13 08:44:52;;;;;;;7.80;1.23;;;14.20;99.90;;;;;;4896191;29;20063;-56
2022/06/13 08:47:23;;;;;;;5.95;1.63;;;14.40;99.90;;;;;;4894631;29;20447;-58
2022/06/13 08:50:03;;;;;;;10.35;1.95;;;14.60;99.90;;;;;;4889498;29;20064;-57
2022/06/13 08:52:55;;;;;;;7.80;1.95;;;14.80;99.90;;;;;;4894490;29;20390;-57
2022/06/13 08:55:48;;;;;;;9.25;1.60;;;14.90;99.90;;;;;;4889952;29;20057;-57
2022/06/13 08:58:28;;;;;;;6.55;2.40;;;15.00;99.90;;;;;;4887538;29;20052;-57
2022/06/13 09:00:57;;;;;;;;;;;15.00;99.90;;;;;;4896337;29;20052;-57
2022/06/13 09:03:53;;;;;;;10.77;2.57;;;15.10;99.90;;;;;;4894760;29;19934;-57
2022/06/13 09:06:29;;;;;;;3.70;1.50;;;15.10;99.90;;;;;;4895160;29;20307;-58
2022/06/13 09:09:10;;;;;;;4.82;1.45;;;15.00;99.90;;;;;;4894769;29;20053;-58
2022/06/13 09:11:47;;;;;;;4.03;1.27;;;15.00;99.90;;;;;;4889708;29;20052;-57
2022/06/13 09:14:32;;;;;;;2.30;1.10;;;15.00;99.90;;;;;;4895308;29;20052;-57
2022/06/13 09:17:35;;;;;;;4.93;1.17;;;14.90;99.90;;;;;;4895814;29;20055;-58
2022/06/13 09:20:22;;;;;;;4.65;0.95;;;14.90;99.90;;;;;;4884013;29;20413;-57
2022/06/13 09:23:16;;;;;;;7.53;0.80;;;14.90;99.90;;;;;;4892356;29;20044;-57
2022/06/13 09:26:03;;;;;;;5.70;1.15;;;14.90;99.90;;;;;;4878023;29;20060;-57
2022/06/13 09:29:12;;;;;;;6.32;0.90;;;14.80;99.90;;;;;;4885599;29;20529;-58
2022/06/13 09:31:46;;;;;;;29.13;1.73;;;14.70;99.90;;;;;;4865831;29;20056;-58
2022/06/13 09:34:39;;;;;;;6.55;1.00;;;14.70;99.90;;;;;;4893225;29;20052;-59
2022/06/13 09:37:09;;;;;;;3.13;0.88;;;14.70;99.90;;;;;;4908072;29;20048;-58
2022/06/13 09:39:38;;;;;;;4.03;1.20;;;14.60;99.90;;;;;;4892555;29;20053;-59
2022/06/13 09:42:25;;;;;;;3.83;0.93;;;14.70;99.90;;;;;;4883622;29;20405;-59
2022/06/13 09:45:22;;;;;;;3.15;1.13;;;14.60;99.90;;;;;;4888041;29;20378;-58
2022/06/13 09:47:50;;;;;;;5.40;1.10;;;14.70;99.90;;;;;;4888401;29;20363;-59
2022/06/13 09:50:51;;;;;;;5.90;1.92;;;14.60;99.90;;;;;;4878640;29;20056;-58
2022/06/13 09:53:35;;;;;;;6.43;1.42;;;14.60;99.90;;;;;;4884368;29;20044;-58
2022/06/13 09:56:08;;;;;;;2.38;0.70;;;14.60;99.90;;;;;;4906412;29;20051;-58
2022/06/13 09:58:48;;;;;;;2.58;1.27;;;14.60;99.90;;;;;;4894717;29;20040;-58
2022/06/13 10:01:22;;;;;;;2.65;0.80;;;14.70;99.90;;;;;;4877133;29;20493;-58
2022/06/13 10:04:04;;;;;;;5.18;1.00;;;14.80;99.90;;;;;;4890406;29;20064;-57
2022/06/13 10:06:54;;;;;;;2.40;0.73;;;14.90;99.90;;;;;;4890922;29;20490;-58
2022/06/13 10:09:52;;;;;;;4.45;0.98;;;14.90;99.90;;;;;;4875522;29;20053;-57
2022/06/13 10:12:47;;;;;;;4.90;0.90;;;14.90;99.90;;;;;;4892593;29;20053;-58
2022/06/13 10:15:18;;;;;;;3.33;0.60;;;15.00;99.90;;;;;;4890132;29;20057;-57
2022/06/13 10:18:23;;;;;;;3.45;0.73;;;15.10;99.90;;;;;;4892675;29;20052;-58
2022/06/13 10:20:54;;;;;;;4.78;0.88;;;15.10;99.90;;;;;;4887937;29;20044;-57
2022/06/13 10:23:22;;;;;;;7.05;1.00;;;15.20;99.90;;;;;;4881074;29;20462;-58
2022/06/13 10:26:05;;;;;;;9.00;1.45;;;15.30;99.90;;;;;;4888687;29;21989;-57
2022/06/13 10:28:58;;;;;;;2.92;0.75;;;15.40;99.90;;;;;;4885442;29;20052;-57
2022/06/13 10:31:36;;;;;;;5.15;1.00;;;15.50;99.90;;;;;;4890114;29;20060;-57
2022/06/13 10:34:19;;;;;;;3.45;0.55;;;15.60;99.90;;;;;;4888125;29;20489;-57
2022/06/13 10:37:02;;;;;;;5.15;0.88;;;15.70;99.90;;;;;;4887676;29;20044;-57
2022/06/13 10:39:30;;;;;;;5.35;1.75;;;15.90;99.90;;;;;;4882512;29;20037;-56
2022/06/13 10:42:14;;;;;;;2.58;0.77;;;16.00;99.90;;;;;;4881849;29;20059;-57
2022/06/13 10:44:42;;;;;;;4.30;1.00;;;16.10;99.90;;;;;;4875496;29;20057;-57
2022/06/13 10:47:21;;;;;;;3.65;0.90;;;16.20;99.90;;;;;;4895182;29;20044;-57
2022/06/13 10:50:16;;;;;;;7.13;1.35;;;16.30;99.90;;;;;;4884728;29;20063;-57
2022/06/13 10:52:47;;;;;;;1.88;1.00;;;16.50;99.90;;;;;;4874464;29;20055;-57
2022/06/13 10:55:20;;;;;;;3.40;0.80;;;16.70;99.90;;;;;;4894605;29;20052;-57
2022/06/13 10:57:52;;;;;;;4.20;1.10;;;16.80;99.90;;;;;;4894952;29;20044;-58
2022/06/13 11:00:23;;;;;;;3.60;0.65;;;16.90;99.90;;;;;;4895288;29;20060;-58
2022/06/13 11:02:51;;;;;;;4.78;1.05;;;17.10;99.90;;;;;;4894144;29;20060;-58
2022/06/13 11:05:25;;;;;;;1.50;1.00;;;17.30;99.90;;;;;;4894983;29;20528;-59
2022/06/13 11:07:55;;;;;;;5.22;1.00;;;17.50;99.90;;;;;;4890262;29;20064;-58
2022/06/13 11:10:40;;;;;;;5.15;1.10;;;17.60;99.90;;;;;;4876506;29;20055;-58
2022/06/13 11:13:17;;;;;;;2.67;0.82;;;17.70;99.90;;;;;;4877743;29;20053;-59
2022/06/13 11:24:52;;;;;;;3.50;0.65;;;17.90;99.90;;;;;;4892801;29;20385;-58
2022/06/13 11:27:42;;;;;;;7.15;1.17;;;17.80;99.90;;;;;;4894428;29;20403;-58
2022/06/13 11:30:31;;;;;;;5.97;0.95;;;17.70;99.90;;;;;;4894871;29;20055;-58
2022/06/13 11:33:10;;;;;;;7.55;0.98;;;17.70;99.90;;;;;;4894616;29;20053;-57
2022/06/13 11:35:46;;;;;;;4.00;0.82;;;17.60;99.90;;;;;;4893711;29;20057;-57
2022/06/13 11:38:33;;;;;;;4.65;1.00;;;17.40;99.90;;;;;;4889790;29;20041;-58
2022/06/13 11:41:17;;;;;;;3.80;0.98;;;17.30;99.90;;;;;;4893985;29;20044;-58
2022/06/13 11:44:01;;;;;;;4.72;1.13;;;17.20;99.90;;;;;;4894766;29;20045;-56
2022/06/13 11:46:59;;;;;;;5.10;1.55;;;17.20;99.90;;;;;;4894679;29;20057;-57
2022/06/13 11:49:43;;;;;;;5.15;1.40;;;17.20;99.90;;;;;;4895061;29;20056;-57
2022/06/13 11:52:10;;;;;;;4.47;1.38;;;17.10;99.90;;;;;;4894876;29;20053;-57
2022/06/13 11:54:52;;;;;;;1.30;0.77;;;17.10;99.90;;;;;;4893343;29;20405;-58
2022/06/13 11:57:36;;;;;;;3.35;0.90;;;17.20;99.90;;;;;;4877551;29;20064;-58
2022/06/13 12:00:08;;;;;;;1.50;0.80;;;17.20;99.90;;;;;;4878049;29;20049;-58
2022/06/13 12:02:41;;;;;;;5.05;1.15;;;17.40;99.90;;;;;;4894454;29;20489;-59
2022/06/13 12:05:31;;;;;;;4.80;1.02;;;17.50;99.90;;;;;;4894386;29;20045;-58
2022/06/13 12:08:19;;;;;;;2.38;0.90;;;17.50;99.60;;;;;;4893490;29;20053;-58
2022/06/13 12:11:00;;;;;;;2.85;0.80;;;17.60;99.80;;;;;;4896085;29;20060;-58
2022/06/13 12:13:38;;;;;;;4.05;1.05;;;17.70;99.80;;;;;;4897020;29;20505;-59
2022/06/13 12:16:39;;;;;;;3.00;0.85;;;17.80;99.30;;;;;;4881500;29;20060;-59
2022/06/13 12:19:17;;;;;;;5.60;1.10;;;17.90;99.30;;;;;;4897997;29;20060;-57
2022/06/13 12:22:06;;;;;;;4.45;0.73;;;18.10;98.40;;;;;;4897088;29;20449;-59
2022/06/13 12:24:43;;;;;;;3.20;1.02;;;18.10;97.90;;;;;;4885941;29;20469;-59
2022/06/13 12:27:21;;;;;;;3.88;1.33;;;18.20;98.30;;;;;;4887021;29;20525;-58
2022/06/13 12:30:03;;;;;;;6.00;0.85;;;18.40;98.60;;;;;;4911063;29;20048;-59
2022/06/13 12:32:38;;;;;;;4.57;0.95;;;18.60;97.20;;;;;;4896074;29;20051;-58
2022/06/13 12:35:43;;;;;;;1.80;0.63;;;18.80;97.40;;;;;;4889958;29;20045;-58
2022/06/13 12:38:36;;;;;;;6.90;0.80;;;19.10;97.30;;;;;;4887646;29;20055;-58
2022/06/13 12:41:58;;;;;;;5.15;1.10;;;19.40;97.10;;;;;;4880676;29;20401;-58
2022/06/13 12:45:04;;;;;;;7.20;1.17;;;19.50;95.40;;;;;;4848440;29;20406;-59
2022/06/13 12:47:44;;;;;;;5.45;1.02;;;19.50;95.10;;;;;;4893576;29;20044;-59
2022/06/13 12:50:33;;;;;;;6.28;1.08;;;19.50;94.90;;;;;;4895985;29;20509;-58
2022/06/13 12:53:19;;;;;;;3.75;1.95;;;19.40;94.90;;;;;;4896742;29;20045;-58
2022/06/13 12:55:53;;;;;;;5.47;1.00;;;19.50;94.80;;;;;;4894814;29;20063;-57
2022/06/13 12:58:59;;;;;;;5.22;1.20;;;19.40;93.60;;;;;;4895913;29;20040;-58
2022/06/13 13:01:36;;;;;;;4.90;1.40;;;19.30;93.50;;;;;;4886111;29;20056;-58
2022/06/13 13:04:26;;;;;;;5.00;0.82;;;19.00;93.90;;;;;;4893673;29;20044;-58
2022/06/13 13:07:13;;;;;;;6.55;0.93;;;18.90;94.10;;;;;;4891876;29;20129;-57
2022/06/13 13:10:02;;;;;;;4.80;0.77;;;18.80;94.70;;;;;;4882980;29;20051;-58
2022/06/13 13:13:09;;;;;;;4.45;0.73;;;18.70;95.00;;;;;;4892283;29;20056;-59
2022/06/13 13:15:53;;;;;;;3.58;1.00;;;18.50;94.70;;;;;;4889423;29;20057;-58
2022/06/13 13:18:30;;;;;;;3.17;1.00;;;18.40;95.00;;;;;;4890881;29;20504;-58
2022/06/13 13:21:06;;;;;;;6.70;1.27;;;18.30;95.20;;;;;;4893097;29;20049;-59
2022/06/13 13:23:39;;;;;;;6.18;0.75;;;18.30;95.60;;;;;;4892429;29;20397;-58
2022/06/13 13:26:23;;;;;;;3.40;1.02;;;18.50;95.80;;;;;;4884705;29;20048;-59
2022/06/13 13:29:14;;;;;;;3.80;0.68;;;18.60;96.40;;;;;;4894963;29;20070;-59
2022/06/13 13:31:48;;;;;;;6.70;0.80;;;18.80;96.20;;;;;;4894186;29;20041;-58
2022/06/13 13:34:34;;;;;;;3.42;1.08;;;18.90;95.60;;;;;;4892420;29;20048;-59
2022/06/13 13:37:07;;;;;;;1.88;0.95;;;19.00;95.30;;;;;;4891731;29;20063;-59
2022/06/13 13:39:44;;;;;;;3.72;0.73;;;19.10;95.40;;;;;;4894428;29;20420;-59
2022/06/13 13:42:21;;;;;;;6.07;1.17;;;19.10;95.10;;;;;;4886306;29;20063;-60
2022/06/13 13:44:57;;;;;;;9.38;1.25;;;19.20;95.10;;;;;;4892880;29;20057;-59
2022/06/13 13:47:25;;;;;;;4.25;0.95;;;19.20;94.90;;;;;;4889819;29;20056;-59
2022/06/13 13:50:02;;;;;;;3.75;0.93;;;19.20;94.50;;;;;;4893154;29;20053;-59
2022/06/13 13:52:35;;;;;;;2.88;1.02;;;19.20;94.40;;;;;;4892517;29;20040;-58
2022/06/13 13:55:18;;;;;;;7.60;1.17;;;19.10;94.00;;;;;;4887425;29;20489;-60
2022/06/13 13:57:59;;;;;;;5.65;1.10;;;18.90;93.90;;;;;;4892680;29;20053;-59
2022/06/13 14:00:34;;;;;;;2.50;1.15;;;18.70;94.50;;;;;;4894399;29;20040;-58
2022/06/13 14:03:36;;;;;;;3.65;0.82;;;18.40;95.00;;;;;;4889326;29;20557;-59